Time;durP1;ratioP1;P1;durP2;ratioP2;P2;SDS_P1;SDS_P2;PMS_P1;PMS_P2;Temp;Humidity;BMP_temperature;BMP_pressure;BME280_temperature;BME280_humidity;BME280_pressure;Samples;Min_cycle;Max_cycle;Signal;HPM_P1;HPM_P2
2023/01/09 00:01:49;;;;;;;4.13;1.40;;;9.20;99.90;;;;;;4127849;28;20034;-67
2023/01/09 00:03:53;;;;;;;4.93;1.75;;;9.20;99.90;;;;;;4073727;29;20039;-66
2023/01/09 00:05:54;;;;;;;2.33;1.40;;;9.20;99.90;;;;;;4108083;28;20987;-69
2023/01/09 00:07:54;;;;;;;4.50;1.60;;;9.20;99.90;;;;;;4110116;28;20039;-67
2023/01/09 00:09:55;;;;;;;2.92;1.35;;;9.20;99.90;;;;;;4152506;28;20033;-66
2023/01/09 00:11:56;;;;;;;4.53;1.58;;;9.10;99.90;;;;;;4127399;28;20116;-66
2023/01/09 00:13:57;;;;;;;2.85;1.08;;;9.10;99.90;;;;;;4143649;28;20466;-66
2023/01/09 00:15:58;;;;;;;3.03;1.10;;;9.20;99.90;;;;;;4145003;28;20399;-66
2023/01/09 00:17:59;;;;;;;2.55;1.20;;;9.20;99.90;;;;;;4132119;28;20494;-66
2023/01/09 00:19:59;;;;;;;3.83;1.48;;;9.20;99.90;;;;;;4132409;28;20031;-66
2023/01/09 00:22:00;;;;;;;1.48;0.90;;;9.20;99.90;;;;;;4139408;28;20033;-66
2023/01/09 00:24:01;;;;;;;2.33;1.27;;;9.20;99.90;;;;;;4144878;28;20080;-66
2023/01/09 00:26:08;;;;;;;3.72;0.95;;;9.20;99.90;;;;;;4145275;28;20041;-66
2023/01/09 00:28:09;;;;;;;5.45;0.95;;;9.10;99.90;;;;;;4141320;28;20075;-66
2023/01/09 00:30:10;;;;;;;1.55;0.80;;;9.20;99.90;;;;;;4133488;28;20066;-66
2023/01/09 00:32:11;;;;;;;2.97;0.80;;;9.10;99.90;;;;;;4139819;28;20128;-66
2023/01/09 00:34:12;;;;;;;1.75;0.73;;;9.10;99.90;;;;;;4143054;28;20502;-66
2023/01/09 00:36:12;;;;;;;1.02;0.50;;;9.10;99.90;;;;;;4142460;28;20467;-66
2023/01/09 00:38:13;;;;;;;1.85;0.57;;;9.10;99.90;;;;;;4131573;28;20092;-66
2023/01/09 00:40:15;;;;;;;2.90;0.88;;;9.10;99.90;;;;;;4137261;28;20094;-66
2023/01/09 00:42:20;;;;;;;1.83;1.00;;;9.10;99.90;;;;;;4143149;28;20116;-66
2023/01/09 00:44:24;;;;;;;1.73;0.80;;;9.10;99.90;;;;;;4127909;28;20038;-66
2023/01/09 00:46:32;;;;;;;2.35;0.80;;;9.00;99.90;;;;;;4125869;28;20030;-66
2023/01/09 00:48:36;;;;;;;1.60;0.60;;;8.90;99.90;;;;;;4112353;28;20455;-66
2023/01/09 00:50:37;;;;;;;1.45;0.47;;;8.90;99.90;;;;;;4130644;28;20031;-66
2023/01/09 00:52:39;;;;;;;1.63;0.73;;;9.00;99.90;;;;;;4143699;28;20037;-69
2023/01/09 00:54:40;;;;;;;2.38;0.77;;;9.00;99.90;;;;;;4145062;28;20142;-67
2023/01/09 00:56:41;;;;;;;1.88;0.80;;;9.00;99.90;;;;;;4142057;28;20485;-66
2023/01/09 00:58:42;;;;;;;1.42;0.90;;;9.00;99.90;;;;;;4129529;28;20074;-67
2023/01/09 01:00:42;;;;;;;0.98;0.68;;;9.00;99.90;;;;;;4158959;28;20120;-67
2023/01/09 01:02:45;;;;;;;2.25;0.80;;;9.00;99.90;;;;;;4133976;28;20088;-66
2023/01/09 01:09:25;;;;;;;1.08;0.60;;;9.10;99.90;;;;;;4120332;28;20038;-67
2023/01/09 01:11:26;;;;;;;1.88;0.82;;;9.10;99.90;;;;;;4127329;28;20030;-66
2023/01/09 01:13:26;;;;;;;2.42;0.90;;;9.10;99.90;;;;;;4128017;28;20069;-68
2023/01/09 01:15:28;;;;;;;2.38;0.80;;;9.10;99.90;;;;;;4143552;28;20552;-67
2023/01/09 01:17:29;;;;;;;1.25;0.82;;;9.10;99.90;;;;;;4145265;28;20417;-68
2023/01/09 01:19:29;;;;;;;0.82;0.60;;;9.10;99.90;;;;;;4155581;28;20033;-66
2023/01/09 01:21:30;;;;;;;2.30;0.70;;;9.10;99.90;;;;;;4137050;28;20041;-66
2023/01/09 01:23:31;;;;;;;0.98;0.60;;;9.10;99.90;;;;;;4144420;28;20113;-66
2023/01/09 01:25:34;;;;;;;2.28;0.75;;;9.10;99.90;;;;;;4127394;28;20437;-66
2023/01/09 01:27:34;;;;;;;4.25;0.70;;;9.10;99.90;;;;;;4149347;28;20038;-66
2023/01/09 01:29:35;;;;;;;1.80;0.70;;;9.10;99.90;;;;;;4133746;28;20031;-66
2023/01/09 01:31:36;;;;;;;1.63;0.57;;;9.20;99.90;;;;;;4128394;28;20410;-66
2023/01/09 01:33:36;;;;;;;0.70;0.63;;;9.20;99.90;;;;;;4129016;28;20438;-66
2023/01/09 01:35:37;;;;;;;1.67;0.77;;;9.10;99.90;;;;;;4128650;28;20053;-66
2023/01/09 01:37:38;;;;;;;1.38;0.40;;;9.10;99.90;;;;;;4136248;28;20053;-66
2023/01/09 01:39:40;;;;;;;2.33;0.93;;;9.10;99.90;;;;;;4121777;28;20395;-66
2023/01/09 01:41:40;;;;;;;1.40;0.80;;;9.10;99.90;;;;;;4118118;28;20075;-66
2023/01/09 01:43:53;;;;;;;3.55;0.77;;;9.10;99.90;;;;;;4134677;28;20037;-66
2023/01/09 01:45:54;;;;;;;0.50;0.50;;;9.10;99.90;;;;;;4135724;28;20034;-67
2023/01/09 01:48:18;;;;;;;2.60;0.88;;;9.10;99.90;;;;;;4134535;28;20510;-66
2023/01/09 01:50:21;;;;;;;1.02;0.50;;;9.10;99.90;;;;;;4132623;28;20144;-66
2023/01/09 01:52:23;;;;;;;2.92;0.90;;;9.00;99.90;;;;;;4122057;28;20031;-66
2023/01/09 01:54:28;;;;;;;0.88;0.60;;;9.00;99.90;;;;;;4141658;28;20535;-66
2023/01/09 01:56:57;;;;;;;3.75;1.15;;;9.00;99.90;;;;;;4131875;28;21210;-66
2023/01/09 01:59:08;;;;;;;0.93;0.70;;;8.90;99.90;;;;;;4127887;28;20341;-66
2023/01/09 02:01:09;;;;;;;1.83;0.70;;;8.90;99.90;;;;;;4142627;28;20122;-68
2023/01/09 02:03:14;;;;;;;1.83;0.90;;;8.90;99.90;;;;;;4140673;28;20030;-69
2023/01/09 02:05:18;;;;;;;1.58;0.70;;;8.90;99.90;;;;;;4145386;28;20068;-69
2023/01/09 02:07:19;;;;;;;1.95;1.13;;;8.80;99.90;;;;;;4136106;28;20041;-69
2023/01/09 02:09:21;;;;;;;3.40;0.85;;;8.80;99.90;;;;;;4128001;28;20032;-69
2023/01/09 02:11:22;;;;;;;0.70;0.60;;;8.70;99.90;;;;;;4127750;28;20038;-69
2023/01/09 02:13:24;;;;;;;2.20;0.95;;;8.70;99.90;;;;;;4141395;28;20442;-69
2023/01/09 02:15:28;;;;;;;0.60;0.50;;;8.70;99.90;;;;;;4141407;28;20038;-69
2023/01/09 02:17:48;;;;;;;2.38;0.73;;;8.60;99.90;;;;;;4137738;28;20065;-69
2023/01/09 02:20:07;;;;;;;4.53;0.98;;;8.60;99.90;;;;;;4118432;28;20035;-69
2023/01/09 02:22:31;;;;;;;2.30;0.77;;;8.60;99.90;;;;;;4126738;28;20564;-69
2023/01/09 02:25:02;;;;;;;1.80;0.43;;;8.50;99.90;;;;;;4132365;28;20448;-69
2023/01/09 02:27:36;;;;;;;0.73;0.50;;;8.50;99.90;;;;;;4150940;28;20989;-69
2023/01/09 02:29:57;;;;;;;0.75;0.40;;;8.50;99.90;;;;;;4130281;28;20110;-69
2023/01/09 02:32:19;;;;;;;2.00;0.80;;;8.40;99.90;;;;;;4095461;28;20034;-69
2023/01/09 02:34:28;;;;;;;3.03;0.85;;;8.40;99.90;;;;;;4133367;28;20044;-69
2023/01/09 02:36:51;;;;;;;1.65;0.52;;;8.40;99.90;;;;;;4124914;28;20030;-69
2023/01/09 02:39:15;;;;;;;2.55;0.82;;;8.40;99.90;;;;;;4140716;28;20124;-69
2023/01/09 02:41:22;;;;;;;1.65;0.80;;;8.40;99.90;;;;;;4125587;28;20499;-69
2023/01/09 02:43:24;;;;;;;4.15;0.70;;;8.30;99.90;;;;;;4118334;28;20031;-69
2023/01/09 02:45:25;;;;;;;2.53;0.82;;;8.40;99.90;;;;;;4136721;28;20034;-69
2023/01/09 02:47:28;;;;;;;1.85;0.70;;;8.40;99.90;;;;;;4137192;28;20387;-69
2023/01/09 02:49:31;;;;;;;5.28;0.80;;;8.30;99.90;;;;;;4128639;28;20086;-69
2023/01/09 02:51:39;;;;;;;4.25;1.10;;;8.30;99.90;;;;;;4127353;28;20037;-69
2023/01/09 02:53:53;;;;;;;1.92;0.90;;;8.20;99.90;;;;;;4139549;28;20030;-69
2023/01/09 02:56:19;;;;;;;2.83;0.90;;;8.20;99.90;;;;;;4137024;28;20026;-69
2023/01/09 02:58:51;;;;;;;2.85;0.80;;;8.20;99.90;;;;;;4137631;28;20038;-69
2023/01/09 03:01:08;;;;;;;1.88;1.00;;;8.10;99.90;;;;;;4143062;28;20042;-69
2023/01/09 03:03:19;;;;;;;1.10;0.55;;;8.10;99.90;;;;;;4117100;28;20042;-69
2023/01/09 03:05:52;;;;;;;1.13;0.68;;;8.10;99.90;;;;;;4132126;28;20372;-69
2023/01/09 03:08:05;;;;;;;1.77;0.80;;;8.10;99.90;;;;;;4135229;28;20109;-69
2023/01/09 03:10:31;;;;;;;3.03;1.00;;;8.10;99.90;;;;;;4132313;28;20292;-69
2023/01/09 03:12:32;;;;;;;4.45;1.30;;;8.10;99.90;;;;;;4133585;28;20030;-69
2023/01/09 03:14:37;;;;;;;1.30;0.70;;;8.00;99.90;;;;;;4141071;28;20034;-69
2023/01/09 03:16:38;;;;;;;2.42;1.15;;;8.00;99.90;;;;;;4143229;28;20502;-69
2023/01/09 03:18:40;;;;;;;1.30;0.82;;;7.90;99.90;;;;;;4138648;28;20046;-69
2023/01/09 03:20:42;;;;;;;1.85;0.90;;;8.00;99.90;;;;;;4128215;28;20043;-69
2023/01/09 03:22:54;;;;;;;1.57;0.97;;;7.90;99.90;;;;;;4140176;28;20026;-74
2023/01/09 03:24:55;;;;;;;3.33;1.40;;;8.00;99.90;;;;;;4153452;28;20060;-74
2023/01/09 03:26:56;;;;;;;1.60;1.00;;;7.90;99.90;;;;;;4153709;28;20072;-75
2023/01/09 03:28:58;;;;;;;2.42;1.30;;;8.00;99.90;;;;;;4139220;28;20069;-74
2023/01/09 03:30:58;;;;;;;2.72;1.23;;;7.90;99.90;;;;;;4142123;28;20116;-73
2023/01/09 03:32:59;;;;;;;1.58;1.15;;;7.90;99.90;;;;;;4142768;28;20037;-74
2023/01/09 03:35:01;;;;;;;3.65;1.20;;;7.90;99.90;;;;;;4142569;28;20036;-74
2023/01/09 03:37:03;;;;;;;2.67;1.30;;;7.90;99.90;;;;;;4138506;28;20041;-75
2023/01/09 03:39:04;;;;;;;4.55;1.55;;;7.90;99.90;;;;;;4141395;28;20034;-74
2023/01/09 03:41:05;;;;;;;1.90;0.98;;;7.90;99.90;;;;;;4146172;28;20034;-75
2023/01/09 03:43:05;;;;;;;3.08;1.20;;;7.90;99.90;;;;;;4128099;28;20129;-74
2023/01/09 03:45:06;;;;;;;4.68;1.15;;;7.80;99.90;;;;;;4131951;28;20506;-74
2023/01/09 03:47:07;;;;;;;1.65;0.90;;;7.80;99.90;;;;;;4149781;28;20034;-74
2023/01/09 03:49:07;;;;;;;1.38;0.95;;;7.80;99.90;;;;;;4143339;28;20054;-74
2023/01/09 03:51:11;;;;;;;3.25;0.82;;;7.80;99.90;;;;;;4142321;28;20038;-74
2023/01/09 03:53:14;;;;;;;5.10;0.90;;;7.80;99.90;;;;;;4141180;28;20038;-74
2023/01/09 03:55:18;;;;;;;3.72;0.90;;;7.80;99.90;;;;;;4139769;28;20556;-68
2023/01/09 03:57:19;;;;;;;3.25;1.10;;;7.80;99.90;;;;;;4138858;28;20100;-75
2023/01/09 03:59:19;;;;;;;4.85;1.30;;;7.70;99.90;;;;;;4126703;28;20469;-74
2023/01/09 04:01:20;;;;;;;2.60;0.77;;;7.70;99.90;;;;;;4144304;28;20080;-74
2023/01/09 04:03:20;;;;;;;3.30;1.00;;;7.70;99.90;;;;;;4138637;28;20050;-74
2023/01/09 04:05:21;;;;;;;4.97;1.10;;;7.70;99.90;;;;;;4138839;28;20030;-74
2023/01/09 04:07:22;;;;;;;3.22;1.15;;;7.70;99.90;;;;;;4141323;28;20570;-74
2023/01/09 04:09:22;;;;;;;3.50;1.20;;;7.70;99.90;;;;;;4139269;28;20037;-72
2023/01/09 04:11:23;;;;;;;1.55;1.00;;;7.80;99.90;;;;;;4142617;28;20026;-73
2023/01/09 04:13:24;;;;;;;2.45;1.00;;;7.70;99.90;;;;;;4140349;28;20042;-74
2023/01/09 04:15:24;;;;;;;2.10;1.08;;;7.70;99.90;;;;;;4135631;28;20482;-70
2023/01/09 04:17:25;;;;;;;2.17;1.00;;;7.70;99.90;;;;;;4122502;28;20473;-69
2023/01/09 04:19:26;;;;;;;3.70;1.08;;;7.70;99.90;;;;;;4140106;28;20077;-74
2023/01/09 04:21:26;;;;;;;1.85;0.90;;;7.60;99.90;;;;;;4143443;28;20383;-74
2023/01/09 04:23:27;;;;;;;6.18;1.35;;;7.70;99.90;;;;;;4159101;28;20029;-74
2023/01/09 04:25:27;;;;;;;1.77;1.05;;;7.60;99.90;;;;;;4145998;28;20072;-74
2023/01/09 04:27:28;;;;;;;4.05;1.10;;;7.60;99.90;;;;;;4143609;28;20033;-73
2023/01/09 04:29:29;;;;;;;2.83;1.30;;;7.60;99.90;;;;;;4139551;28;20061;-73
2023/01/09 04:31:29;;;;;;;3.88;1.15;;;7.60;99.90;;;;;;4140340;28;20026;-73
2023/01/09 04:33:30;;;;;;;4.18;1.17;;;7.60;99.90;;;;;;4145097;28;20077;-73
2023/01/09 04:35:31;;;;;;;3.20;1.17;;;7.50;99.90;;;;;;4143946;28;20049;-74
2023/01/09 04:37:31;;;;;;;4.55;1.13;;;7.50;99.90;;;;;;4139249;28;20062;-74
2023/01/09 04:39:32;;;;;;;1.90;0.95;;;7.50;99.90;;;;;;4137493;28;20038;-74
2023/01/09 04:41:47;;;;;;;3.20;1.23;;;7.50;99.90;;;;;;4111133;28;20054;-74
2023/01/09 04:43:48;;;;;;;3.25;1.25;;;7.50;99.90;;;;;;4143193;28;20042;-75
2023/01/09 04:45:49;;;;;;;1.95;1.02;;;7.50;99.90;;;;;;4126702;28;20122;-74
2023/01/09 04:47:49;;;;;;;4.47;1.10;;;7.40;99.90;;;;;;4135283;28;20046;-70
2023/01/09 04:49:53;;;;;;;2.17;1.00;;;7.50;99.90;;;;;;4137317;28;20132;-74
2023/01/09 04:51:54;;;;;;;3.55;0.88;;;7.50;99.90;;;;;;4129126;28;20042;-74
2023/01/09 04:53:55;;;;;;;3.13;0.80;;;7.50;99.90;;;;;;4153704;28;20405;-74
2023/01/09 04:55:55;;;;;;;3.47;1.08;;;7.50;99.90;;;;;;4159744;28;20112;-70
2023/01/09 04:57:56;;;;;;;6.25;1.65;;;7.50;99.90;;;;;;4130854;28;20038;-73
2023/01/09 04:59:57;;;;;;;3.13;0.90;;;7.40;99.90;;;;;;4130500;28;20037;-73
2023/01/09 05:01:58;;;;;;;3.33;1.08;;;7.40;99.90;;;;;;4131662;28;20030;-71
2023/01/09 05:04:02;;;;;;;7.07;1.70;;;7.40;99.90;;;;;;4147137;28;20030;-74
2023/01/09 05:06:02;;;;;;;3.25;0.95;;;7.50;99.90;;;;;;4126924;28;21665;-74
2023/01/09 05:08:04;;;;;;;4.82;1.13;;;7.40;99.90;;;;;;4133117;28;20033;-74
2023/01/09 05:10:06;;;;;;;7.32;1.33;;;7.50;99.90;;;;;;4135422;28;20038;-73
2023/01/09 05:12:07;;;;;;;3.33;1.27;;;7.50;99.90;;;;;;4136229;28;20037;-74
2023/01/09 05:14:07;;;;;;;5.95;1.15;;;7.40;99.90;;;;;;4166092;28;20468;-73
2023/01/09 05:16:10;;;;;;;4.43;1.08;;;7.40;99.90;;;;;;4139807;28;20100;-74
2023/01/09 05:18:11;;;;;;;6.03;1.65;;;7.50;99.90;;;;;;4145507;28;20030;-74
2023/01/09 05:20:11;;;;;;;2.35;1.02;;;7.50;99.90;;;;;;4138280;28;20494;-73
2023/01/09 05:22:12;;;;;;;6.50;1.13;;;7.50;99.90;;;;;;4141106;28;20057;-74
2023/01/09 05:24:13;;;;;;;3.08;1.05;;;7.50;99.90;;;;;;4133594;28;20033;-70
2023/01/09 05:26:18;;;;;;;4.47;1.00;;;7.50;99.90;;;;;;4150550;28;20048;-73
2023/01/09 05:28:19;;;;;;;4.88;1.10;;;7.50;99.90;;;;;;4129196;28;20172;-74
2023/01/09 05:30:25;;;;;;;1.88;0.77;;;7.50;99.90;;;;;;4133124;28;20042;-76
2023/01/09 05:32:26;;;;;;;4.63;1.00;;;7.50;99.90;;;;;;4123093;28;20439;-74
2023/01/09 05:34:27;;;;;;;5.40;1.02;;;7.50;99.90;;;;;;4129060;28;20037;-74
2023/01/09 05:36:28;;;;;;;6.75;1.50;;;7.50;99.90;;;;;;4134702;28;20018;-74
2023/01/09 05:38:28;;;;;;;4.70;0.95;;;7.60;99.90;;;;;;4153265;28;20056;-74
2023/01/09 05:40:29;;;;;;;4.85;1.08;;;7.60;99.90;;;;;;4142049;28;20129;-71
2023/01/09 05:42:29;;;;;;;6.05;1.23;;;7.50;99.90;;;;;;4141219;28;20531;-70
2023/01/09 05:44:30;;;;;;;3.38;1.13;;;7.50;99.90;;;;;;4140549;28;20942;-74
2023/01/09 05:46:31;;;;;;;5.30;1.00;;;7.50;99.90;;;;;;4135932;28;20387;-74
2023/01/09 05:48:36;;;;;;;3.75;1.10;;;7.60;99.90;;;;;;4125200;28;20649;-73
2023/01/09 05:50:37;;;;;;;6.70;1.20;;;7.50;99.90;;;;;;4113733;28;20031;-74
2023/01/09 05:52:40;;;;;;;3.85;1.02;;;7.60;99.90;;;;;;4120888;28;20034;-73
2023/01/09 05:54:41;;;;;;;4.32;1.13;;;7.60;99.90;;;;;;4127015;28;20030;-74
2023/01/09 05:56:42;;;;;;;7.63;1.35;;;7.60;99.90;;;;;;4121923;28;20679;-74
2023/01/09 05:58:46;;;;;;;4.22;1.52;;;7.60;99.90;;;;;;4113328;28;20451;-70
2023/01/09 06:00:50;;;;;;;5.55;1.35;;;7.60;99.90;;;;;;4129913;28;20034;-76
2023/01/09 06:02:51;;;;;;;3.50;1.33;;;7.60;99.90;;;;;;4146043;28;20518;-74
2023/01/09 06:04:52;;;;;;;5.95;1.23;;;7.60;99.90;;;;;;4139839;28;20038;-73
2023/01/09 06:06:52;;;;;;;5.97;1.30;;;7.60;99.90;;;;;;4132061;28;20033;-70
2023/01/09 06:08:53;;;;;;;5.63;1.08;;;7.60;99.90;;;;;;4133684;28;20558;-74
2023/01/09 06:10:59;;;;;;;2.80;1.10;;;7.70;99.90;;;;;;4135960;28;20529;-74
2023/01/09 06:12:59;;;;;;;6.43;1.02;;;7.70;99.90;;;;;;4138720;28;20034;-76
2023/01/09 06:15:00;;;;;;;5.70;1.52;;;7.70;99.90;;;;;;4129643;28;21460;-70
2023/01/09 06:17:01;;;;;;;3.35;0.85;;;7.70;99.90;;;;;;4129365;28;20054;-73
2023/01/09 06:19:02;;;;;;;2.08;0.88;;;7.70;99.90;;;;;;4132129;28;20042;-71
2023/01/09 06:21:03;;;;;;;3.08;1.17;;;7.70;99.90;;;;;;4135290;28;20120;-73
2023/01/09 06:23:04;;;;;;;3.78;1.08;;;7.80;99.90;;;;;;4118070;28;20045;-74
2023/01/09 06:25:11;;;;;;;5.78;1.13;;;7.80;99.90;;;;;;4128964;28;20137;-76
2023/01/09 06:27:11;;;;;;;5.38;1.52;;;7.80;99.90;;;;;;4128701;28;20069;-70
2023/01/09 06:29:13;;;;;;;6.28;1.20;;;7.80;99.90;;;;;;4142147;28;20781;-75
2023/01/09 06:31:13;;;;;;;8.38;1.65;;;7.80;99.90;;;;;;4130268;28;20546;-72
2023/01/09 06:33:14;;;;;;;6.60;1.15;;;7.80;99.90;;;;;;4135229;28;20033;-74
2023/01/09 06:35:19;;;;;;;3.38;1.13;;;7.80;99.90;;;;;;4135461;28;20474;-72
2023/01/09 06:37:20;;;;;;;3.55;1.23;;;7.80;99.90;;;;;;4133373;28;20579;-74
2023/01/09 06:39:20;;;;;;;3.00;0.90;;;7.80;99.90;;;;;;4138014;28;20050;-75
2023/01/09 06:41:21;;;;;;;6.00;1.40;;;7.80;99.90;;;;;;4138988;28;20038;-74
2023/01/09 06:43:22;;;;;;;5.25;1.30;;;7.80;99.90;;;;;;4137290;28;20161;-74
2023/01/09 06:45:22;;;;;;;5.40;1.10;;;7.80;99.90;;;;;;4123790;28;21069;-73
2023/01/09 06:47:23;;;;;;;5.43;1.10;;;7.80;99.90;;;;;;4133599;28;20046;-73
2023/01/09 06:49:23;;;;;;;6.22;1.52;;;7.80;99.90;;;;;;4151483;28;20034;-74
2023/01/09 06:51:24;;;;;;;3.25;1.05;;;7.90;99.90;;;;;;4136620;28;20374;-74
2023/01/09 06:53:25;;;;;;;5.55;1.45;;;7.90;99.90;;;;;;4135034;28;20033;-75
2023/01/09 06:55:26;;;;;;;5.53;1.42;;;7.90;99.90;;;;;;4136688;28;20109;-73
2023/01/09 06:57:26;;;;;;;4.75;1.38;;;7.90;99.90;;;;;;4133652;28;20040;-75
2023/01/09 06:59:27;;;;;;;4.85;1.30;;;7.90;99.90;;;;;;4137147;28;20452;-75
2023/01/09 07:01:28;;;;;;;6.82;1.77;;;7.90;99.90;;;;;;4098947;28;20491;-75
2023/01/09 07:03:29;;;;;;;7.88;1.20;;;7.90;99.90;;;;;;4136909;28;20026;-74
2023/01/09 07:05:30;;;;;;;6.88;1.70;;;8.00;99.90;;;;;;4135809;28;20075;-69
2023/01/09 07:07:30;;;;;;;5.18;1.42;;;7.90;99.90;;;;;;4127395;28;20678;-74
2023/01/09 07:09:31;;;;;;;7.95;1.33;;;8.00;99.90;;;;;;4130311;28;20542;-72
2023/01/09 07:11:31;;;;;;;5.30;1.25;;;8.00;99.90;;;;;;4137682;28;20450;-75
2023/01/09 07:13:32;;;;;;;5.22;1.33;;;8.00;99.90;;;;;;4132145;28;20088;-73
2023/01/09 07:15:33;;;;;;;8.90;1.70;;;8.00;99.90;;;;;;4133740;28;20041;-75
2023/01/09 07:17:34;;;;;;;10.40;1.73;;;8.00;99.90;;;;;;4122197;28;20038;-74
2023/01/09 07:19:34;;;;;;;8.00;1.95;;;8.00;99.90;;;;;;4136203;28;20550;-73
2023/01/09 07:21:35;;;;;;;6.18;1.98;;;8.00;99.90;;;;;;4119201;28;20046;-74
2023/01/09 07:23:35;;;;;;;7.85;1.52;;;8.00;99.90;;;;;;4136870;28;20038;-73
2023/01/09 07:25:36;;;;;;;8.38;1.75;;;8.00;99.90;;;;;;4137262;28;20417;-73
2023/01/09 07:27:37;;;;;;;5.30;1.42;;;8.00;99.90;;;;;;4139757;28;20117;-73
2023/01/09 07:29:37;;;;;;;6.35;1.45;;;8.00;99.90;;;;;;4140016;28;20030;-74
2023/01/09 07:31:38;;;;;;;4.45;1.35;;;8.00;99.90;;;;;;4119917;28;20035;-73
2023/01/09 07:33:39;;;;;;;6.63;1.50;;;8.10;99.90;;;;;;4155625;28;20038;-73
2023/01/09 07:35:39;;;;;;;4.53;1.35;;;8.10;99.90;;;;;;4139242;28;20069;-73
2023/01/09 07:37:40;;;;;;;6.25;2.28;;;8.00;99.90;;;;;;4137798;28;20038;-73
2023/01/09 07:39:40;;;;;;;5.35;1.80;;;8.00;99.90;;;;;;4137787;28;20131;-74
2023/01/09 07:41:41;;;;;;;6.35;1.88;;;8.00;99.90;;;;;;4136655;28;20219;-73
2023/01/09 07:43:42;;;;;;;6.18;1.45;;;8.10;99.90;;;;;;4137892;28;20354;-72
2023/01/09 07:45:42;;;;;;;5.13;1.48;;;8.00;99.90;;;;;;4137580;28;20506;-73
2023/01/09 07:47:43;;;;;;;6.70;2.20;;;8.00;99.90;;;;;;4139186;28;20429;-73
2023/01/09 07:49:44;;;;;;;4.28;1.65;;;8.00;99.90;;;;;;4140607;28;20032;-73
2023/01/09 07:51:47;;;;;;;3.53;1.60;;;8.00;99.90;;;;;;4116952;28;20451;-73
2023/01/09 07:53:47;;;;;;;9.50;2.17;;;8.00;99.90;;;;;;4125858;28;20038;-73
2023/01/09 07:55:48;;;;;;;9.43;1.80;;;8.00;99.90;;;;;;4133838;28;20518;-74
2023/01/09 07:57:50;;;;;;;7.53;1.52;;;8.00;99.90;;;;;;4116388;28;20039;-72
2023/01/09 07:59:50;;;;;;;11.47;2.23;;;8.00;99.90;;;;;;4140897;28;20045;-74
2023/01/09 08:01:51;;;;;;;8.98;1.77;;;8.00;99.90;;;;;;4134510;28;20261;-73
2023/01/09 08:03:52;;;;;;;9.00;1.98;;;8.00;99.90;;;;;;4138451;28;20502;-74
2023/01/09 08:05:52;;;;;;;4.95;1.58;;;7.90;99.90;;;;;;4140636;28;21557;-73
2023/01/09 08:07:53;;;;;;;5.75;1.42;;;8.00;99.90;;;;;;4138872;28;20092;-73
2023/01/09 08:09:53;;;;;;;7.90;1.80;;;8.00;99.90;;;;;;4152261;28;20037;-73
2023/01/09 08:11:56;;;;;;;7.88;1.67;;;8.00;99.90;;;;;;4137467;28;20045;-73
2023/01/09 08:13:57;;;;;;;7.85;1.50;;;8.00;99.90;;;;;;4136873;28;20038;-73
2023/01/09 08:15:57;;;;;;;7.93;2.00;;;8.00;99.90;;;;;;4135407;28;20062;-73
2023/01/09 08:17:58;;;;;;;5.28;1.85;;;8.00;99.90;;;;;;4122073;28;20455;-73
2023/01/09 08:19:58;;;;;;;5.28;1.33;;;8.00;99.90;;;;;;4154337;28;20121;-73
2023/01/09 08:21:59;;;;;;;5.75;1.52;;;8.10;99.90;;;;;;4138948;28;20438;-73
2023/01/09 08:24:06;;;;;;;7.13;1.75;;;8.10;99.90;;;;;;4136565;28;20104;-73
2023/01/09 08:26:07;;;;;;;13.63;2.00;;;8.10;99.90;;;;;;4131252;28;20533;-74
2023/01/09 08:28:11;;;;;;;6.20;1.65;;;8.10;99.90;;;;;;4137696;28;20034;-73
2023/01/09 08:30:12;;;;;;;13.18;1.90;;;8.10;99.90;;;;;;4137378;28;20143;-73
2023/01/09 08:32:13;;;;;;;9.43;2.05;;;8.10;99.90;;;;;;4139835;28;20185;-73
2023/01/09 08:34:13;;;;;;;9.45;2.25;;;8.10;99.90;;;;;;4138237;28;20088;-75
2023/01/09 08:36:14;;;;;;;5.20;1.65;;;8.10;99.90;;;;;;4138309;28;20117;-73
2023/01/09 08:38:18;;;;;;;8.48;1.90;;;8.10;99.90;;;;;;4138440;28;20042;-71
2023/01/09 08:40:19;;;;;;;8.52;2.20;;;8.10;99.90;;;;;;4135283;28;20038;-71
2023/01/09 08:47:04;;;;;;;4.00;1.23;;;8.10;99.90;;;;;;4119507;28;20038;-72
2023/01/09 08:49:04;;;;;;;7.35;1.67;;;8.10;99.90;;;;;;4131594;28;20038;-72
2023/01/09 08:51:05;;;;;;;7.82;1.77;;;8.10;99.90;;;;;;4122042;28;20553;-73
2023/01/09 08:53:06;;;;;;;4.28;1.23;;;8.10;99.90;;;;;;4133017;28;20105;-74
2023/01/09 08:55:07;;;;;;;7.53;1.80;;;8.10;99.90;;;;;;4132809;28;20042;-73
2023/01/09 08:57:07;;;;;;;5.97;1.75;;;8.10;99.90;;;;;;4136636;28;20570;-72
2023/01/09 08:59:10;;;;;;;9.05;1.70;;;8.10;99.90;;;;;;4135756;28;20881;-70
2023/01/09 09:01:10;;;;;;;10.85;2.20;;;8.10;99.90;;;;;;4140068;28;20038;-73
2023/01/09 09:03:11;;;;;;;6.78;1.50;;;8.10;99.90;;;;;;4139992;28;20129;-73
2023/01/09 09:05:12;;;;;;;8.07;1.73;;;8.10;99.90;;;;;;4119574;28;20472;-73
2023/01/09 09:07:13;;;;;;;6.47;1.50;;;8.10;99.90;;;;;;4137291;28;20510;-73
2023/01/09 09:09:14;;;;;;;8.07;1.58;;;8.20;99.90;;;;;;4134023;28;20494;-74
2023/01/09 09:11:14;;;;;;;4.50;1.13;;;8.20;99.90;;;;;;4130021;28;20503;-74
2023/01/09 09:13:15;;;;;;;6.15;1.58;;;8.20;99.90;;;;;;4156295;28;20449;-73
2023/01/09 09:15:22;;;;;;;4.75;1.58;;;8.20;99.90;;;;;;4133693;28;20041;-72
2023/01/09 09:17:23;;;;;;;6.78;1.60;;;8.20;99.90;;;;;;4137836;28;20050;-72
2023/01/09 09:19:23;;;;;;;11.88;2.30;;;8.20;99.90;;;;;;4129720;28;20049;-74
2023/01/09 09:21:24;;;;;;;6.30;1.60;;;8.30;99.90;;;;;;4155087;28;20127;-73
2023/01/09 09:23:25;;;;;;;5.78;1.33;;;8.30;99.90;;;;;;4138790;28;20064;-73
2023/01/09 09:25:26;;;;;;;5.07;1.27;;;8.30;99.90;;;;;;4135124;28;20041;-74
2023/01/09 09:27:27;;;;;;;7.97;1.80;;;8.30;99.90;;;;;;4140447;28;20037;-74
2023/01/09 09:29:27;;;;;;;4.47;1.35;;;8.40;99.90;;;;;;4140368;28;20045;-71
2023/01/09 09:31:28;;;;;;;5.85;1.38;;;8.40;99.90;;;;;;4122267;28;20045;-73
2023/01/09 09:33:29;;;;;;;5.97;1.65;;;8.40;99.90;;;;;;4140734;28;20042;-74
2023/01/09 09:35:31;;;;;;;6.53;1.63;;;8.40;99.90;;;;;;4119422;28;20034;-73
2023/01/09 09:37:35;;;;;;;6.70;1.48;;;8.40;99.90;;;;;;4139961;28;20120;-73
2023/01/09 09:39:35;;;;;;;5.75;1.23;;;8.40;99.90;;;;;;4151656;28;20049;-72
2023/01/09 09:44:49;;;;;;;7.85;1.75;;;8.50;99.90;;;;;;4127682;28;20208;-72
2023/01/09 09:47:29;;;;;;;6.88;1.48;;;8.50;99.90;;;;;;4145337;28;20491;-73
2023/01/09 09:49:57;;;;;;;7.03;1.63;;;8.50;99.90;;;;;;4137696;28;20030;-74
2023/01/09 09:52:16;;;;;;;6.18;1.05;;;8.50;99.90;;;;;;4136779;28;20086;-73
2023/01/09 09:54:41;;;;;;;7.47;1.45;;;8.60;99.90;;;;;;4129305;28;20526;-73
2023/01/09 09:56:54;;;;;;;5.45;1.23;;;8.60;99.90;;;;;;4145192;28;20521;-72
2023/01/09 09:59:07;;;;;;;;;;;8.60;99.90;;;;;;4140998;28;20052;-73
2023/01/09 10:01:11;;;;;;;6.23;1.27;;;8.60;99.90;;;;;;4151487;28;19925;-73
2023/01/09 10:03:32;;;;;;;6.05;1.77;;;8.60;99.90;;;;;;4141308;28;20091;-73
2023/01/09 10:05:42;;;;;;;6.18;1.50;;;8.60;99.90;;;;;;4120216;28;20073;-69
2023/01/09 10:07:49;;;;;;;7.82;1.67;;;8.60;99.90;;;;;;4156470;28;20162;-74
2023/01/09 10:09:53;;;;;;;7.15;1.80;;;8.70;99.90;;;;;;4138068;28;20033;-74
2023/01/09 10:12:18;;;;;;;5.63;1.35;;;8.70;99.90;;;;;;4102333;28;20044;-73
2023/01/09 10:14:19;;;;;;;7.35;1.48;;;8.70;99.90;;;;;;4129153;28;20030;-69
2023/01/09 10:17:04;;;;;;;8.45;1.70;;;8.70;99.90;;;;;;4138354;28;20046;-74
2023/01/09 10:19:43;;;;;;;4.70;1.30;;;8.70;99.90;;;;;;4139134;28;20050;-72
2023/01/09 10:22:09;;;;;;;7.68;1.67;;;8.70;99.90;;;;;;4139995;28;20138;-74
2023/01/09 10:24:36;;;;;;;3.75;1.23;;;8.70;99.90;;;;;;4139148;28;20494;-72
2023/01/09 10:26:49;;;;;;;8.13;2.00;;;8.80;99.90;;;;;;4135870;28;20042;-73
2023/01/09 10:29:01;;;;;;;5.38;1.83;;;8.80;99.90;;;;;;4128627;28;20037;-75
2023/01/09 10:31:45;;;;;;;4.32;1.48;;;8.80;99.90;;;;;;4147974;28;20038;-74
2023/01/09 10:34:09;;;;;;;5.38;1.73;;;8.90;99.90;;;;;;4115954;28;20517;-73
2023/01/09 10:36:56;;;;;;;3.50;1.17;;;8.90;99.90;;;;;;4138692;28;20069;-73
2023/01/09 10:39:03;;;;;;;6.43;1.63;;;8.90;99.90;;;;;;4109510;28;20069;-74
2023/01/09 10:41:17;;;;;;;7.47;1.20;;;8.90;99.90;;;;;;4093209;28;20270;-73
2023/01/09 10:43:35;;;;;;;7.55;1.55;;;8.90;99.90;;;;;;4121914;28;20085;-74
2023/01/09 10:45:46;;;;;;;6.70;1.35;;;8.90;99.90;;;;;;4119637;28;20113;-72
2023/01/09 10:47:47;;;;;;;6.60;1.30;;;9.00;99.90;;;;;;4130343;28;20053;-73
2023/01/09 10:49:52;;;;;;;6.70;1.65;;;9.00;99.90;;;;;;4151053;28;20037;-71
2023/01/09 10:52:04;;;;;;;6.00;1.13;;;9.00;99.90;;;;;;4137603;28;26303;-74
2023/01/09 10:54:12;;;;;;;9.43;1.50;;;9.00;99.90;;;;;;4128493;28;20427;-74
2023/01/09 10:56:25;;;;;;;7.65;1.55;;;9.10;99.90;;;;;;4119096;28;21561;-74
2023/01/09 10:58:26;;;;;;;;;;;9.10;99.90;;;;;;4150996;28;20664;-74
2023/01/09 11:00:27;;;;;;;4.00;1.30;;;9.00;99.90;;;;;;4135762;28;19920;-74
2023/01/09 11:02:32;;;;;;;5.20;1.58;;;9.00;99.90;;;;;;4129272;28;20550;-74
2023/01/09 11:04:37;;;;;;;5.47;1.67;;;9.10;99.90;;;;;;4141017;28;20638;-74
2023/01/09 11:06:48;;;;;;;7.03;1.50;;;9.00;99.90;;;;;;4139454;28;20418;-75
2023/01/09 11:09:00;;;;;;;3.30;1.58;;;9.00;99.90;;;;;;4141015;28;20402;-74
2023/01/09 11:11:02;;;;;;;4.60;1.40;;;9.00;99.90;;;;;;4138139;28;20027;-75